Meteo Giornale » Osservazioni meteo Cina » Zhengding
ore: 12:00 - Osservazioni Meteo Zhengding
Lat. 38° 17' N Lon. 114° 42' E Alt. 71 metri s.l.m.
29 °C
Sereno
Temp. 24 Ore
19 °C
31 °C
Nord
7.2 Km/h
Dew point 17 °C
Umidità 48 %
Visibilità 10 Km
Il sole sorge alle ore 05:50
Il sole tramonta alle ore 18:52
| Data e Ora | Cielo e Fenomeni | T °C | DP °C | Um. % | Pres. hPa | Vis. km | Vento km/h | |
|---|---|---|---|---|---|---|---|---|
| Oggi h: 12:00 | Sereno | 29 | 17 | 48 | 1017 | 10 | N 7.2 | |
| Oggi h: 11:00 | Sereno | 28 | 17 | 51 | 1018 | 10 | N 3.6 | |
| Oggi h: 10:00 | Sereno | 26 | 18 | 61 | 1018 | 10 | N 3.6 | |
| Oggi h: 09:00 | Sereno | 25 | 18 | 65 | 1018 | 10 | N 3.6 | |
| Oggi h: 08:00 | Sereno | 23 | 18 | 73 | 1018 | 10 | NO 10.8 | |
| Oggi h: 07:00 | Sereno | 21 | 18 | 82 | 1017 | 10 | N 7.2 | |
| Oggi h: 06:00 | Sereno | 19 | 17 | 88 | 1017 | 10 | N 7.2 | |
| Oggi h: 05:00 | Sereno | 19 | 18 | 93 | 1016 | 10 | N 3.6 | |
| Oggi h: 04:00 | Sereno | 19 | 18 | 93 | 1016 | 10 | N 7.2 | |
| Oggi h: 03:00 | Sereno | 20 | 18 | 88 | 1016 | 10 | N 7.2 | |
| Oggi h: 02:00 | Sereno | 21 | 18 | 82 | 1016 | 10 | NO 10.8 | |
| Oggi h: 01:00 | Sereno | 21 | 18 | 82 | 1016 | 10 | N 7.2 | |
| Oggi h: 00:00 | Sereno | 20 | 18 | 88 | 1016 | 10 | N 3.6 | |
| Ieri h: 23:00 | Sereno | 20 | 18 | 88 | 1015 | 10 | N 0 | |
| Ieri h: 22:00 | Sereno | 21 | 18 | 82 | 1015 | 10 | N 3.6 | |
| Ieri h: 21:00 | Sereno | 21 | 19 | 88 | 1014 | 10 | N 3.6 | |
| Ieri h: 20:00 | Sereno | 22 | 19 | 83 | 1014 | 10 | N 3.6 | |
| Ieri h: 19:00 | Sereno | 24 | 19 | 73 | 1013 | 10 | N 3.6 | |
| Ieri h: 18:00 | Sereno | 29 | 16 | 45 | 1012 | 10 | N 7.2 | |
| Ieri h: 17:00 | Sereno | 30 | 16 | 42 | 1012 | 10 | N 7.2 | |
| Ieri h: 16:00 | Sereno | 30 | 15 | 40 | 1012 | 10 | N 7.2 | |
| Ieri h: 15:00 | Sereno | 31 | 16 | 40 | 1012 | 10 | N 7.2 | |
| Ieri h: 14:00 | Sereno | 30 | 15 | 40 | 1012 | 10 | N 7.2 | |
| Ieri h: 13:00 | Sereno | 30 | 15 | 40 | 1012 | 10 | N 7.2 | |



